createdAt,value
2017-06-16T00:00:04.972Z,9.27
2017-06-16T00:02:33.244Z,9.60
2017-06-16T00:05:01.505Z,8.90
2017-06-16T00:07:29.033Z,10.03
2017-06-16T00:09:56.551Z,9.70
2017-06-16T00:12:25.505Z,8.63
2017-06-16T00:14:53.012Z,8.70
2017-06-16T00:17:20.516Z,8.77
2017-06-16T00:19:48.041Z,10.33
2017-06-16T00:22:15.573Z,9.70
2017-06-16T00:24:43.074Z,8.73
2017-06-16T00:27:10.582Z,7.93
2017-06-16T00:29:38.105Z,8.07
2017-06-16T00:32:05.650Z,7.80
2017-06-16T00:34:33.147Z,7.77
2017-06-16T00:37:00.635Z,6.70
2017-06-16T00:39:28.912Z,8.07
2017-06-16T00:41:57.177Z,7.20
2017-06-16T00:44:24.803Z,7.73
2017-06-16T00:46:52.296Z,7.47
2017-06-16T00:49:19.793Z,7.07
2017-06-16T00:51:47.305Z,7.23
2017-06-16T00:54:14.811Z,7.43
2017-06-16T00:56:42.340Z,9.10
2017-06-16T00:59:16.584Z,8.20
2017-06-16T01:01:44.117Z,6.87
2017-06-16T01:04:12.381Z,6.40
2017-06-16T01:06:39.868Z,6.80
2017-06-16T01:09:08.141Z,6.97
2017-06-16T01:11:36.424Z,6.67
2017-06-16T01:14:03.951Z,6.47
2017-06-16T01:16:31.450Z,7.23
2017-06-16T01:18:58.968Z,6.50
2017-06-16T01:21:26.472Z,8.43
2017-06-16T01:23:53.977Z,6.83
2017-06-16T01:26:21.508Z,6.73
2017-06-16T01:28:49.007Z,6.77
2017-06-16T01:31:16.504Z,8.70
2017-06-16T01:33:44.037Z,7.50
2017-06-16T01:36:11.544Z,6.67
2017-06-16T01:38:39.056Z,7.10
2017-06-16T01:41:07.328Z,6.63
2017-06-16T01:43:34.812Z,8.00
2017-06-16T01:46:02.331Z,7.00
2017-06-16T01:48:29.837Z,6.77
2017-06-16T01:50:57.356Z,6.23
2017-06-16T01:53:24.852Z,5.50
2017-06-16T01:55:52.356Z,5.50
2017-06-16T01:58:19.862Z,6.43
2017-06-16T02:00:48.137Z,6.17
2017-06-16T02:03:15.667Z,5.93
2017-06-16T02:05:43.172Z,6.20
2017-06-16T02:08:10.684Z,6.50
2017-06-16T02:10:38.200Z,6.57
2017-06-16T02:13:06.468Z,6.97
2017-06-16T02:15:34.013Z,7.43
2017-06-16T02:18:01.510Z,6.93
2017-06-16T02:20:29.008Z,6.13
2017-06-16T02:22:56.511Z,6.50
2017-06-16T02:25:24.814Z,6.97
2017-06-16T02:27:52.343Z,8.27
2017-06-16T02:30:19.835Z,7.10
2017-06-16T02:32:47.337Z,8.13
2017-06-16T02:35:14.861Z,7.30
2017-06-16T02:37:42.357Z,7.73
2017-06-16T02:40:09.883Z,9.43
2017-06-16T02:42:37.389Z,9.70
2017-06-16T02:45:04.885Z,10.30
2017-06-16T02:47:32.388Z,8.43
2017-06-16T02:49:59.902Z,12.07
2017-06-16T02:52:27.444Z,10.63
2017-06-16T02:54:55.722Z,11.17
2017-06-16T02:57:23.225Z,11.03
2017-06-16T02:59:50.741Z,12.20
2017-06-16T03:02:19.024Z,12.73
2017-06-16T03:04:46.571Z,13.53
2017-06-16T03:07:14.853Z,13.40
2017-06-16T03:09:43.124Z,16.17
2017-06-16T03:12:10.650Z,16.33
2017-06-16T03:14:38.152Z,18.17
2017-06-16T03:17:06.468Z,16.00
2017-06-16T03:19:33.968Z,18.07
2017-06-16T03:22:01.476Z,18.90
2017-06-16T03:24:34.564Z,16.17
2017-06-16T03:27:02.073Z,19.57
2017-06-16T03:29:29.575Z,22.20
2017-06-16T03:31:57.101Z,19.80
2017-06-16T03:34:24.610Z,23.00
2017-06-16T03:36:52.117Z,22.33
2017-06-16T03:39:19.645Z,20.00
2017-06-16T03:41:47.136Z,20.17
2017-06-16T03:44:14.657Z,19.93
2017-06-16T03:46:42.183Z,20.70
2017-06-16T03:49:10.459Z,22.60
2017-06-16T03:51:38.781Z,17.63
2017-06-16T03:54:06.300Z,18.77
2017-06-16T03:56:33.808Z,18.80
2017-06-16T03:59:01.311Z,18.30
2017-06-16T04:01:28.805Z,17.60
2017-06-16T04:03:56.332Z,17.37
2017-06-16T04:06:23.836Z,17.37
2017-06-16T04:08:51.351Z,17.43
2017-06-16T04:11:18.860Z,15.30
2017-06-16T04:13:46.365Z,17.43
2017-06-16T04:16:13.897Z,17.00
2017-06-16T04:18:41.409Z,18.50
2017-06-16T04:21:08.921Z,18.57
2017-06-16T04:23:36.440Z,17.27
2017-06-16T04:26:03.937Z,18.33
2017-06-16T04:28:31.464Z,17.10
2017-06-16T04:30:58.976Z,17.37
2017-06-16T04:33:27.246Z,15.73
2017-06-16T04:35:54.746Z,19.10
2017-06-16T04:38:22.260Z,16.70
2017-06-16T04:40:51.311Z,18.90
2017-06-16T04:43:18.825Z,19.50
2017-06-16T04:45:47.100Z,15.40
2017-06-16T04:48:14.608Z,18.83
2017-06-16T04:50:42.120Z,15.40
2017-06-16T04:53:09.656Z,17.80
2017-06-16T04:55:37.161Z,15.60
2017-06-16T04:58:04.710Z,15.53
2017-06-16T05:00:32.980Z,16.13
2017-06-16T05:03:01.248Z,16.03
2017-06-16T05:05:28.768Z,15.20
2017-06-16T05:07:56.261Z,15.43
2017-06-16T05:10:23.769Z,15.87
2017-06-16T05:12:51.285Z,15.37
2017-06-16T05:15:18.786Z,16.57
2017-06-16T05:17:46.317Z,15.87
2017-06-16T05:20:14.606Z,17.80
2017-06-16T05:22:47.804Z,16.20
2017-06-16T05:25:15.311Z,17.13
2017-06-16T05:27:42.819Z,18.40
2017-06-16T05:30:10.340Z,14.97
2017-06-16T05:32:37.841Z,15.50
2017-06-16T05:35:05.392Z,17.73
2017-06-16T05:37:33.664Z,15.97
2017-06-16T05:40:01.168Z,13.20
2017-06-16T05:42:28.688Z,15.03
2017-06-16T05:44:56.966Z,15.07
2017-06-16T05:47:24.497Z,15.17
2017-06-16T05:49:52.009Z,13.93
2017-06-16T05:52:19.508Z,13.70
2017-06-16T05:54:47.028Z,15.60
2017-06-16T05:57:14.523Z,12.33
2017-06-16T05:59:42.044Z,11.87
2017-06-16T06:02:09.545Z,11.57
2017-06-16T06:04:37.054Z,12.63
2017-06-16T06:07:04.622Z,13.27
2017-06-16T06:09:32.153Z,13.67
2017-06-16T06:12:00.533Z,12.03
2017-06-16T06:14:28.813Z,12.20
2017-06-16T06:16:56.333Z,12.30
2017-06-16T06:19:23.862Z,12.33
2017-06-16T06:21:51.357Z,10.70
2017-06-16T06:24:19.279Z,9.47
2017-06-16T06:26:46.784Z,9.70
2017-06-16T06:29:14.279Z,8.80
2017-06-16T06:31:43.127Z,9.73
2017-06-16T06:34:11.987Z,9.17
2017-06-16T06:36:40.857Z,9.30
2017-06-16T06:39:09.700Z,11.30
2017-06-16T06:41:38.547Z,8.73
2017-06-16T06:44:07.408Z,11.03
2017-06-16T06:46:36.268Z,11.43
2017-06-16T06:49:05.003Z,10.30
2017-06-16T06:51:33.847Z,11.40
2017-06-16T06:54:02.711Z,11.50
2017-06-16T06:56:31.591Z,12.37
2017-06-16T06:59:00.465Z,10.57
2017-06-16T07:01:29.360Z,12.67
2017-06-16T07:03:58.219Z,11.17
2017-06-16T07:06:27.068Z,7.80
2017-06-16T07:08:55.920Z,8.23
2017-06-16T07:11:24.787Z,7.20
2017-06-16T07:13:53.651Z,6.70
2017-06-16T07:16:22.483Z,8.93
2017-06-16T07:18:51.324Z,9.93
2017-06-16T07:21:20.197Z,7.97
2017-06-16T07:23:49.055Z,8.10
2017-06-16T07:26:17.923Z,5.97
2017-06-16T07:28:46.782Z,9.83
2017-06-16T07:31:15.627Z,10.20
2017-06-16T07:33:44.617Z,6.47
2017-06-16T07:36:13.465Z,8.03
2017-06-16T07:38:42.322Z,6.37
2017-06-16T07:41:11.170Z,8.73
2017-06-16T07:43:39.427Z,9.57
2017-06-16T07:46:06.932Z,9.47
2017-06-16T07:48:35.203Z,7.20
2017-06-16T07:51:04.420Z,6.93
2017-06-16T07:53:32.691Z,7.00
2017-06-16T07:56:00.975Z,8.93
2017-06-16T07:58:29.262Z,6.90
2017-06-16T08:00:56.762Z,7.77
2017-06-16T08:03:24.293Z,5.80
2017-06-16T08:05:51.793Z,6.40
2017-06-16T08:08:19.300Z,7.50
2017-06-16T08:10:46.816Z,8.00
2017-06-16T08:13:15.655Z,5.90
2017-06-16T08:15:44.520Z,6.10
2017-06-16T08:18:13.366Z,6.30
2017-06-16T08:20:47.957Z,6.97
2017-06-16T08:23:16.810Z,6.43
2017-06-16T08:25:45.665Z,5.30
2017-06-16T08:28:13.185Z,8.90
2017-06-16T08:30:40.697Z,7.47
2017-06-16T08:33:09.572Z,4.93
2017-06-16T08:35:38.428Z,5.57
2017-06-16T08:38:07.276Z,10.27
2017-06-16T08:40:36.157Z,6.07
2017-06-16T08:43:05.024Z,5.80
2017-06-16T08:45:33.879Z,5.23
2017-06-16T08:48:02.736Z,6.00
2017-06-16T08:50:31.587Z,8.37
2017-06-16T08:53:00.452Z,8.03
2017-06-16T08:55:29.332Z,5.47
2017-06-16T08:57:58.186Z,8.30
2017-06-16T09:00:27.040Z,6.60
2017-06-16T09:02:55.917Z,6.20
2017-06-16T09:05:24.796Z,7.83
2017-06-16T09:07:55.130Z,6.37
2017-06-16T09:10:22.644Z,6.67
2017-06-16T09:12:51.284Z,6.40
2017-06-16T09:15:18.780Z,9.53
2017-06-16T09:17:46.297Z,5.97
2017-06-16T09:20:15.168Z,20.37
2017-06-16T09:22:44.009Z,8.60
2017-06-16T09:25:12.869Z,5.77
2017-06-16T09:27:41.712Z,4.50
2017-06-16T09:30:10.553Z,7.13
2017-06-16T09:32:39.460Z,4.63
2017-06-16T09:35:08.300Z,8.03
2017-06-16T09:37:37.154Z,8.30
2017-06-16T09:40:06.011Z,7.23
2017-06-16T09:42:34.864Z,7.17
2017-06-16T09:45:03.758Z,5.40
2017-06-16T09:47:32.618Z,4.23
2017-06-16T09:50:01.459Z,3.87
2017-06-16T09:52:30.324Z,7.97
2017-06-16T09:54:59.180Z,7.70
2017-06-16T09:57:28.037Z,6.17
2017-06-16T09:59:55.552Z,7.80
2017-06-16T10:02:23.055Z,4.67
2017-06-16T10:04:50.569Z,5.30
2017-06-16T10:07:18.102Z,4.33
2017-06-16T10:09:45.638Z,4.50
2017-06-16T10:12:13.185Z,5.60
2017-06-16T10:14:40.682Z,5.73
2017-06-16T10:17:08.969Z,6.53
2017-06-16T10:19:40.012Z,5.87
2017-06-16T10:22:07.544Z,5.80
2017-06-16T10:24:35.089Z,5.17
2017-06-16T10:27:02.592Z,4.47
2017-06-16T10:29:30.146Z,4.77
2017-06-16T10:31:57.648Z,7.20
2017-06-16T10:34:25.179Z,7.30
2017-06-16T10:36:52.677Z,5.40
2017-06-16T10:39:20.184Z,6.03
2017-06-16T10:41:47.723Z,3.00
2017-06-16T10:44:15.990Z,4.10
2017-06-16T10:46:43.564Z,5.93
2017-06-16T10:49:12.204Z,6.00
2017-06-16T10:51:39.732Z,4.90
2017-06-16T10:54:08.393Z,3.70
2017-06-16T10:56:35.910Z,3.20
2017-06-16T10:59:03.441Z,3.00
2017-06-16T11:01:30.956Z,4.03
2017-06-16T11:03:58.466Z,2.53
2017-06-16T11:06:25.972Z,2.60
2017-06-16T11:08:53.476Z,5.17
2017-06-16T11:11:21.009Z,5.00
2017-06-16T11:13:48.505Z,3.57
2017-06-16T11:16:16.007Z,3.00
2017-06-16T11:18:43.534Z,2.67
2017-06-16T11:21:11.024Z,3.30
2017-06-16T11:23:38.581Z,5.50
2017-06-16T11:26:06.085Z,2.80
2017-06-16T11:28:33.597Z,2.27
2017-06-16T11:31:02.252Z,4.93
2017-06-16T11:33:29.747Z,4.93
2017-06-16T11:35:57.272Z,4.43
2017-06-16T11:38:24.781Z,2.13
2017-06-16T11:40:52.473Z,3.10
2017-06-16T11:43:20.021Z,5.63
2017-06-16T11:45:48.293Z,4.63
2017-06-16T11:48:15.820Z,4.03
2017-06-16T11:50:43.319Z,5.00
2017-06-16T11:53:10.829Z,3.67
2017-06-16T11:55:38.361Z,2.20
2017-06-16T11:58:05.887Z,2.43
2017-06-16T12:00:33.416Z,5.57
2017-06-16T12:03:00.904Z,3.20
2017-06-16T12:05:28.396Z,2.53
2017-06-16T12:07:55.939Z,2.50
2017-06-16T12:10:23.444Z,3.17
2017-06-16T12:12:50.936Z,2.83
2017-06-16T12:15:18.460Z,4.90
2017-06-16T12:17:45.957Z,5.50
2017-06-16T12:20:13.481Z,2.73
2017-06-16T12:22:40.976Z,3.47
2017-06-16T12:25:08.472Z,4.90
2017-06-16T12:27:35.980Z,3.57
2017-06-16T12:30:04.641Z,3.23
2017-06-16T12:32:33.326Z,2.73
2017-06-16T12:35:00.834Z,2.90
2017-06-16T12:37:28.328Z,2.70
2017-06-16T12:39:55.834Z,2.03
2017-06-16T12:42:23.324Z,2.03
2017-06-16T12:44:51.641Z,2.20
2017-06-16T12:47:19.146Z,2.20
2017-06-16T12:49:46.652Z,1.90
2017-06-16T12:52:14.161Z,1.73
2017-06-16T12:54:41.674Z,1.40
2017-06-16T12:57:09.197Z,2.60
2017-06-16T12:59:36.708Z,2.70
2017-06-16T13:02:04.225Z,1.80
2017-06-16T13:04:31.750Z,2.17
2017-06-16T13:06:59.257Z,1.53
2017-06-16T13:09:26.781Z,2.27
2017-06-16T13:11:55.049Z,1.70
2017-06-16T13:14:22.553Z,2.17
2017-06-16T13:16:50.072Z,2.67
2017-06-16T13:19:18.720Z,2.00
2017-06-16T13:21:46.248Z,2.10
2017-06-16T13:24:13.757Z,2.80
2017-06-16T13:26:41.262Z,1.83
2017-06-16T13:29:09.901Z,2.60
2017-06-16T13:31:37.397Z,2.80
2017-06-16T13:34:06.052Z,3.10
2017-06-16T13:36:33.567Z,2.77
2017-06-16T13:39:02.201Z,1.60
2017-06-16T13:41:29.741Z,2.53
2017-06-16T13:43:57.272Z,2.50
2017-06-16T13:46:24.813Z,3.17
2017-06-16T13:48:52.324Z,1.97
2017-06-16T13:51:20.975Z,3.00
2017-06-16T13:53:48.498Z,4.13
2017-06-16T13:56:16.797Z,3.63
2017-06-16T13:58:44.400Z,2.50
2017-06-16T14:01:11.925Z,3.90
2017-06-16T14:03:39.427Z,2.57
2017-06-16T14:06:06.936Z,2.97
2017-06-16T14:08:34.449Z,5.33
2017-06-16T14:11:01.988Z,1.57
2017-06-16T14:13:29.493Z,3.00
2017-06-16T14:15:57.017Z,2.43
2017-06-16T14:18:24.525Z,2.43
2017-06-16T14:20:52.795Z,2.60
2017-06-16T14:23:21.097Z,3.00
2017-06-16T14:25:48.600Z,2.47
2017-06-16T14:28:16.108Z,1.60
2017-06-16T14:30:43.617Z,2.10
2017-06-16T14:33:11.116Z,2.10
2017-06-16T14:35:38.672Z,2.10
2017-06-16T14:38:06.186Z,2.77
2017-06-16T14:40:33.697Z,2.13
2017-06-16T14:43:01.227Z,3.70
2017-06-16T14:45:28.737Z,2.70
2017-06-16T14:47:56.276Z,3.40
2017-06-16T14:50:24.549Z,3.00
2017-06-16T14:52:52.828Z,2.50
2017-06-16T14:55:20.336Z,1.40
2017-06-16T14:57:48.982Z,1.97
2017-06-16T15:00:16.497Z,1.90
2017-06-16T15:02:44.008Z,3.00
2017-06-16T15:05:11.603Z,2.67
2017-06-16T15:07:39.121Z,2.13
2017-06-16T15:10:06.631Z,4.73
2017-06-16T15:12:34.151Z,2.87
2017-06-16T15:15:01.656Z,6.30
2017-06-16T15:17:29.157Z,3.10
2017-06-16T15:19:56.673Z,4.33
2017-06-16T15:22:29.724Z,2.57
2017-06-16T15:24:57.237Z,3.90
2017-06-16T15:27:25.872Z,4.40
2017-06-16T15:29:53.405Z,6.43
2017-06-16T15:32:21.664Z,2.33
2017-06-16T15:34:49.168Z,3.77
2017-06-16T15:37:16.687Z,5.43
2017-06-16T15:39:44.196Z,3.87
2017-06-16T15:42:11.812Z,3.67
2017-06-16T15:44:39.324Z,4.60
2017-06-16T15:47:06.823Z,5.43
2017-06-16T15:49:34.345Z,5.10
2017-06-16T15:52:01.851Z,3.30
2017-06-16T15:54:29.639Z,4.30
2017-06-16T15:56:57.135Z,4.10
2017-06-16T15:59:24.629Z,6.00
2017-06-16T16:01:52.145Z,2.57
2017-06-16T16:04:19.661Z,6.53
2017-06-16T16:06:47.433Z,2.90
2017-06-16T16:09:14.928Z,3.17
2017-06-16T16:11:42.440Z,4.60
2017-06-16T16:14:09.943Z,3.00
2017-06-16T16:16:37.465Z,2.63
2017-06-16T16:19:06.137Z,3.10
2017-06-16T16:21:34.396Z,3.20
2017-06-16T16:24:01.922Z,5.53
2017-06-16T16:26:29.429Z,3.50
2017-06-16T16:28:56.927Z,3.10
2017-06-16T16:31:24.462Z,5.87
2017-06-16T16:33:53.095Z,2.50
2017-06-16T16:36:20.585Z,4.20
2017-06-16T16:38:48.135Z,5.60
2017-06-16T16:41:15.643Z,3.57
2017-06-16T16:43:43.153Z,9.37
2017-06-16T16:46:10.671Z,2.30
2017-06-16T16:48:38.443Z,4.27
2017-06-16T16:51:05.932Z,2.80
2017-06-16T16:53:33.437Z,3.87
2017-06-16T16:56:00.979Z,3.93
2017-06-16T16:58:28.480Z,3.70
2017-06-16T17:00:56.256Z,5.93
2017-06-16T17:03:23.888Z,4.17
2017-06-16T17:05:51.416Z,6.83
2017-06-16T17:08:18.933Z,4.20
2017-06-16T17:10:49.494Z,7.83
2017-06-16T17:13:17.283Z,2.70
2017-06-16T17:15:45.566Z,2.40
2017-06-16T17:18:13.067Z,4.70
2017-06-16T17:20:40.584Z,1.90
2017-06-16T17:23:08.857Z,2.00
2017-06-16T17:25:36.361Z,4.27
2017-06-16T17:28:03.885Z,4.83
2017-06-16T17:30:31.411Z,2.50
2017-06-16T17:32:58.917Z,6.63
2017-06-16T17:35:26.454Z,7.27
2017-06-16T17:37:54.718Z,2.67
2017-06-16T17:40:22.272Z,3.40
2017-06-16T17:42:49.793Z,3.50
2017-06-16T17:45:17.303Z,3.93
2017-06-16T17:47:45.594Z,5.10
2017-06-16T17:50:13.856Z,2.80
2017-06-16T17:52:41.766Z,2.40
2017-06-16T17:55:09.296Z,4.40
2017-06-16T17:57:36.808Z,2.70
2017-06-16T18:00:04.341Z,4.13
2017-06-16T18:02:31.860Z,6.40
2017-06-16T18:04:59.688Z,5.67
2017-06-16T18:07:27.188Z,3.40
2017-06-16T18:09:54.684Z,3.87
2017-06-16T18:12:22.255Z,4.10
2017-06-16T18:14:49.791Z,2.20
2017-06-16T18:17:17.330Z,4.80
2017-06-16T18:19:45.597Z,9.30
2017-06-16T18:22:13.092Z,5.27
2017-06-16T18:24:40.628Z,5.67
2017-06-16T18:27:08.910Z,5.03
2017-06-16T18:29:36.700Z,3.80
2017-06-16T18:32:04.257Z,1.83
2017-06-16T18:34:31.757Z,6.23
2017-06-16T18:36:59.268Z,6.70
2017-06-16T18:39:26.772Z,3.87
2017-06-16T18:41:54.649Z,3.30
2017-06-16T18:44:22.180Z,6.10
2017-06-16T18:46:49.690Z,4.53
2017-06-16T18:49:17.196Z,3.17
2017-06-16T18:51:44.689Z,2.57
2017-06-16T18:54:12.208Z,3.27
2017-06-16T18:56:39.706Z,4.43
2017-06-16T18:59:07.216Z,6.87
2017-06-16T19:01:34.733Z,6.00
2017-06-16T19:04:02.255Z,3.73
2017-06-16T19:06:29.804Z,5.60
2017-06-16T19:08:57.305Z,5.80
2017-06-16T19:11:25.944Z,4.70
2017-06-16T19:13:53.474Z,6.30
2017-06-16T19:16:20.995Z,5.30
2017-06-16T19:18:48.529Z,5.30
2017-06-16T19:21:16.058Z,4.83
2017-06-16T19:23:44.316Z,3.50
2017-06-16T19:26:11.850Z,4.37
2017-06-16T19:28:39.362Z,6.33
2017-06-16T19:31:08.009Z,8.30
2017-06-16T19:33:35.529Z,5.37
2017-06-16T19:36:03.031Z,5.10
2017-06-16T19:38:30.544Z,3.90
2017-06-16T19:40:58.040Z,4.60
2017-06-16T19:43:25.570Z,4.60
2017-06-16T19:45:53.067Z,9.03
2017-06-16T19:48:20.576Z,6.93
2017-06-16T19:50:48.097Z,8.60
2017-06-16T19:53:15.597Z,6.17
2017-06-16T19:55:43.367Z,7.87
2017-06-16T19:58:10.883Z,4.40
2017-06-16T20:00:38.413Z,5.57
2017-06-16T20:03:05.950Z,5.47
2017-06-16T20:05:33.459Z,6.90
2017-06-16T20:08:00.997Z,5.77
2017-06-16T20:10:28.516Z,5.23
2017-06-16T20:12:56.020Z,5.47
2017-06-16T20:15:23.562Z,3.63
2017-06-16T20:17:51.093Z,5.13
2017-06-16T20:20:18.936Z,5.13
2017-06-16T20:22:46.452Z,4.50
2017-06-16T20:25:13.973Z,5.80
2017-06-16T20:27:41.500Z,5.07
2017-06-16T20:30:09.012Z,7.80
2017-06-16T20:32:36.825Z,7.83
2017-06-16T20:35:04.339Z,6.00
2017-06-16T20:37:31.855Z,4.77
2017-06-16T20:40:00.535Z,10.67
2017-06-16T20:42:28.034Z,6.50
2017-06-16T20:44:56.940Z,8.50
2017-06-16T20:47:25.944Z,3.70
2017-06-16T20:49:54.811Z,3.80
2017-06-16T20:52:22.366Z,5.57
2017-06-16T20:54:51.385Z,6.83
2017-06-16T20:57:24.054Z,5.93
2017-06-16T20:59:51.566Z,6.37
2017-06-16T21:02:19.069Z,6.33
2017-06-16T21:04:46.597Z,4.70
2017-06-16T21:07:14.881Z,7.90
2017-06-16T21:09:42.406Z,5.17
2017-06-16T21:12:09.909Z,4.40
2017-06-16T21:14:37.439Z,8.57
2017-06-16T21:17:05.090Z,5.53
2017-06-16T21:19:32.576Z,7.20
2017-06-16T21:22:05.831Z,5.37
2017-06-16T21:24:33.338Z,7.40
2017-06-16T21:27:01.633Z,9.93
2017-06-16T21:29:29.140Z,6.07
2017-06-16T21:31:56.637Z,4.47
2017-06-16T21:34:24.216Z,9.97
2017-06-16T21:36:51.716Z,5.60
2017-06-16T21:39:19.518Z,5.87
2017-06-16T21:41:47.046Z,5.63
2017-06-16T21:44:14.563Z,13.73
2017-06-16T21:46:42.081Z,8.60
2017-06-16T21:49:10.365Z,10.47
2017-06-16T21:51:37.880Z,6.70
2017-06-16T21:54:05.381Z,8.50
2017-06-16T21:56:32.880Z,7.57
2017-06-16T21:59:00.397Z,6.20
2017-06-16T22:01:27.914Z,8.70
2017-06-16T22:03:55.814Z,7.03
2017-06-16T22:06:23.311Z,5.27
2017-06-16T22:08:50.813Z,7.77
2017-06-16T22:11:18.316Z,7.50
2017-06-16T22:13:45.821Z,7.50
2017-06-16T22:16:13.356Z,12.30
2017-06-16T22:18:40.847Z,7.80
2017-06-16T22:21:08.353Z,6.03
2017-06-16T22:23:35.864Z,5.30
2017-06-16T22:26:03.378Z,8.90
2017-06-16T22:28:31.280Z,7.87
2017-06-16T22:30:58.784Z,6.90
2017-06-16T22:33:26.289Z,7.80
2017-06-16T22:35:54.932Z,7.70
2017-06-16T22:38:23.577Z,8.83
2017-06-16T22:40:51.381Z,6.20
2017-06-16T22:43:18.894Z,5.37
2017-06-16T22:45:46.403Z,8.80
2017-06-16T22:48:13.933Z,8.50
2017-06-16T22:50:41.432Z,6.40
2017-06-16T22:53:09.712Z,9.30
2017-06-16T22:55:37.261Z,7.97
2017-06-16T22:58:04.769Z,6.30
2017-06-16T23:00:32.397Z,9.33
2017-06-16T23:03:01.032Z,4.80
2017-06-16T23:05:28.529Z,8.50
2017-06-16T23:07:57.072Z,6.13
2017-06-16T23:10:25.715Z,9.60
2017-06-16T23:12:53.220Z,7.10
2017-06-16T23:15:21.096Z,8.80
2017-06-16T23:17:48.596Z,5.20
2017-06-16T23:20:17.605Z,8.03
2017-06-16T23:22:45.113Z,5.77
2017-06-16T23:25:12.619Z,8.03
2017-06-16T23:27:40.348Z,6.33
2017-06-16T23:30:07.859Z,6.97
2017-06-16T23:32:35.345Z,4.70
2017-06-16T23:35:02.874Z,9.43
2017-06-16T23:37:30.372Z,7.10
2017-06-16T23:39:58.248Z,6.23
2017-06-16T23:42:25.753Z,8.80
2017-06-16T23:44:53.249Z,6.20
2017-06-16T23:47:20.782Z,6.93
2017-06-16T23:49:48.289Z,8.43
2017-06-16T23:52:16.053Z,4.73
2017-06-16T23:54:43.556Z,6.33
2017-06-16T23:57:11.051Z,9.97
2017-06-16T23:59:38.555Z,6.33
